Time;durP1;ratioP1;P1;durP2;ratioP2;P2;SDS_P1;SDS_P2;PMS_P1;PMS_P2;Temp;Humidity;BMP_temperature;BMP_pressure;BME280_temperature;BME280_humidity;BME280_pressure;Samples;Min_cycle;Max_cycle;Signal;HPM_P1;HPM_P2
2024/04/24 00:01:23;;;;;;;7.05;6.35;;;;;;;9.31;43.25;99727.81;11401714;25;20732;-64
2024/04/24 00:06:27;;;;;;;5.68;5.18;;;;;;;9.21;43.69;99724.25;11424102;25;20020;-63
2024/04/24 00:11:32;;;;;;;5.75;5.35;;;;;;;9.15;43.65;99717.63;11470081;25;20473;-62
2024/04/24 00:16:35;;;;;;;5.50;4.97;;;;;;;9.20;44.82;99706.59;11442114;25;20004;-63
2024/04/24 00:21:36;;;;;;;6.35;5.43;;;;;;;9.19;44.05;99703.13;11444110;25;20754;-62
2024/04/24 00:26:38;;;;;;;6.05;5.45;;;;;;;9.22;44.50;99682.56;11462099;25;20006;-62
2024/04/24 00:31:40;;;;;;;6.65;5.68;;;;;;;9.20;44.27;99664.97;11464264;25;20047;-63
2024/04/24 00:36:42;;;;;;;7.13;6.50;;;;;;;9.21;44.33;99668.47;11375147;25;20083;-63
2024/04/24 00:41:43;;;;;;;5.85;5.25;;;;;;;9.12;44.32;99659.47;11426328;25;20217;-62
2024/04/24 00:46:48;;;;;;;5.85;5.35;;;;;;;9.19;44.67;99655.31;11459549;25;20063;-65
2024/04/24 00:51:50;;;;;;;7.65;5.75;;;;;;;9.26;44.66;99660.13;11404398;25;20005;-63
2024/04/24 00:56:52;;;;;;;6.75;6.15;;;;;;;9.24;43.94;99651.44;11424912;25;19996;-62
2024/04/24 01:01:54;;;;;;;6.88;6.28;;;;;;;9.21;44.81;99641.91;11435076;25;20000;-62
2024/04/24 01:06:56;;;;;;;7.53;6.55;;;;;;;9.35;44.48;99646.03;11455777;25;20018;-62
2024/04/24 01:11:58;;;;;;;7.03;6.43;;;;;;;9.28;44.65;99631.63;11386326;25;20077;-62
2024/04/24 01:17:04;;;;;;;7.78;6.55;;;;;;;9.22;44.71;99618.84;11458090;25;19997;-62
2024/04/24 01:22:42;;;;;;;7.40;6.70;;;;;;;9.28;44.51;99621.00;11413579;25;20012;-62
2024/04/24 01:27:45;;;;;;;7.13;6.47;;;;;;;9.26;44.38;99614.97;11417611;25;20012;-63
2024/04/24 01:32:46;;;;;;;7.13;6.43;;;;;;;9.27;44.97;99621.97;11408613;25;19993;-63
2024/04/24 01:37:48;;;;;;;7.93;7.22;;;;;;;9.07;45.05;99605.91;11441982;25;20351;-61
2024/04/24 01:42:49;;;;;;;7.15;6.22;;;;;;;9.10;45.42;99604.81;11452762;25;20012;-62
2024/04/24 01:47:51;;;;;;;7.60;7.00;;;;;;;9.18;45.34;99597.88;11395490;25;20005;-63
2024/04/24 01:52:55;;;;;;;7.83;7.13;;;;;;;9.24;45.60;99598.34;11457060;25;20008;-63
2024/04/24 01:57:57;;;;;;;7.85;7.13;;;;;;;9.25;45.23;99595.53;11456208;25;20063;-64
2024/04/24 02:02:58;;;;;;;7.53;6.82;;;;;;;9.24;45.24;99588.53;11408829;25;20399;-62
2024/04/24 02:08:01;;;;;;;7.22;6.53;;;;;;;9.28;45.04;99576.69;11419369;25;20000;-62
2024/04/24 02:13:03;;;;;;;7.50;6.80;;;;;;;9.25;44.90;99584.06;11463878;25;20553;-63
2024/04/24 02:18:05;;;;;;;7.60;6.90;;;;;;;9.19;45.99;99580.13;11452005;25;19997;-62
2024/04/24 02:23:08;;;;;;;6.97;6.38;;;;;;;9.18;46.56;99571.31;11455240;25;20021;-63
2024/04/24 02:28:09;;;;;;;6.63;5.97;;;;;;;9.08;47.75;99570.41;11438953;25;20004;-63
2024/04/24 02:33:11;;;;;;;8.30;7.15;;;;;;;9.09;47.49;99571.28;11394312;25;20017;-62
2024/04/24 02:38:13;;;;;;;7.40;6.70;;;;;;;9.13;47.35;99562.06;11448538;25;20045;-62
2024/04/24 02:43:16;;;;;;;7.03;6.22;;;;;;;8.98;48.20;99556.25;11444279;25;20447;-62
2024/04/24 02:48:18;;;;;;;6.35;5.80;;;;;;;8.84;48.96;99544.13;11423987;25;20017;-62
2024/04/24 02:53:19;;;;;;;6.72;6.10;;;;;;;8.83;48.15;99545.13;11408762;25;19998;-62
2024/04/24 02:58:21;;;;;;;7.68;6.85;;;;;;;8.67;48.40;99533.13;11433659;25;20094;-63
2024/04/24 03:03:23;;;;;;;6.53;6.00;;;;;;;8.73;49.05;99530.94;11395012;25;20016;-62
2024/04/24 03:08:24;;;;;;;7.60;6.85;;;;;;;8.72;48.77;99513.34;11400844;25;20084;-62
2024/04/24 03:13:26;;;;;;;7.63;6.13;;;;;;;8.74;49.18;99532.66;11452282;25;20808;-63
2024/04/24 03:18:27;;;;;;;7.13;6.43;;;;;;;8.77;49.52;99525.25;11400054;25;20751;-63
2024/04/24 03:23:30;;;;;;;7.18;6.30;;;;;;;8.79;49.38;99517.16;11453297;25;20015;-62
2024/04/24 03:28:31;;;;;;;8.15;7.35;;;;;;;8.46;50.20;99511.91;11449100;25;20148;-63
2024/04/24 03:33:32;;;;;;;8.18;7.43;;;;;;;8.60;50.35;99509.91;11458914;25;20181;-63
2024/04/24 03:38:36;;;;;;;7.03;6.33;;;;;;;8.61;50.45;99511.59;11461539;25;20012;-62
2024/04/24 03:43:38;;;;;;;7.82;7.13;;;;;;;8.71;50.77;99501.03;11440686;25;20778;-62
2024/04/24 03:48:40;;;;;;;7.07;6.38;;;;;;;8.75;51.11;99503.31;11465862;25;19996;-63
2024/04/24 03:53:42;;;;;;;9.48;7.78;;;;;;;8.78;50.71;99516.31;11463647;25;20451;-62
2024/04/24 03:58:43;;;;;;;8.65;7.05;;;;;;;8.71;51.37;99501.03;11398746;25;20077;-62
2024/04/24 04:03:45;;;;;;;7.13;6.55;;;;;;;8.51;51.73;99505.38;11464418;25;20002;-61
2024/04/24 04:08:48;;;;;;;7.55;6.85;;;;;;;8.44;52.70;99497.94;11466030;25;20003;-62
2024/04/24 04:13:49;;;;;;;7.43;6.72;;;;;;;8.42;53.18;99480.44;11446392;25;20019;-63
2024/04/24 04:18:52;;;;;;;7.20;6.50;;;;;;;8.44;53.84;99492.63;11461654;25;19997;-61
2024/04/24 04:23:56;;;;;;;7.78;7.07;;;;;;;8.35;54.72;99495.16;11367735;25;20005;-63
2024/04/24 04:28:58;;;;;;;6.85;6.18;;;;;;;8.39;55.63;99491.28;11455517;25;20031;-62
2024/04/24 04:34:03;;;;;;;7.95;7.20;;;;;;;8.57;55.05;99491.59;11425738;25;20002;-62
2024/04/24 04:39:06;;;;;;;7.40;6.80;;;;;;;8.46;56.03;99482.72;11446943;25;20024;-63
2024/04/24 04:44:07;;;;;;;7.65;6.85;;;;;;;8.29;55.95;99481.47;11392575;25;20009;-63
2024/04/24 04:49:10;;;;;;;7.72;7.03;;;;;;;8.32;56.09;99488.31;11363918;25;20007;-62
2024/04/24 04:54:12;;;;;;;9.18;8.38;;;;;;;8.28;56.00;99478.94;11475921;25;20000;-63
2024/04/24 04:59:14;;;;;;;6.95;6.22;;;;;;;8.51;56.11;99495.59;11443969;25;20009;-63
2024/04/24 05:04:18;;;;;;;7.88;7.07;;;;;;;8.51;56.21;99484.16;11411016;25;20001;-63
2024/04/24 05:09:20;;;;;;;7.97;7.22;;;;;;;8.46;56.64;99484.53;11430633;25;20019;-64
2024/04/24 05:14:21;;;;;;;7.63;6.22;;;;;;;8.39;56.95;99476.25;11442057;25;19996;-63
2024/04/24 05:19:23;;;;;;;7.97;7.18;;;;;;;8.42;56.83;99475.97;11415163;25;20085;-62
2024/04/24 05:24:25;;;;;;;8.20;7.40;;;;;;;8.51;57.49;99473.53;11441642;25;19996;-62
2024/04/24 05:29:28;;;;;;;7.47;6.82;;;;;;;8.51;57.54;99462.94;11385270;25;20005;-62
2024/04/24 05:34:30;;;;;;;7.97;6.95;;;;;;;8.47;57.76;99463.19;11463232;25;20003;-63
2024/04/24 05:39:31;;;;;;;8.60;7.65;;;;;;;8.55;57.51;99467.03;11480594;25;20007;-63
2024/04/24 05:44:33;;;;;;;7.88;7.18;;;;;;;8.65;57.26;99450.19;11462900;25;20337;-63
2024/04/24 05:49:35;;;;;;;7.65;6.88;;;;;;;8.61;57.28;99453.22;11387057;25;20477;-63
2024/04/24 05:54:36;;;;;;;10.73;7.70;;;;;;;8.63;57.20;99461.88;11444543;25;20015;-62
2024/04/24 05:59:38;;;;;;;14.43;7.78;;;;;;;8.67;57.66;99465.97;11407750;25;20005;-63
2024/04/24 06:04:39;;;;;;;8.75;6.40;;;;;;;8.67;56.91;99452.69;11438623;25;20030;-63
2024/04/24 06:09:41;;;;;;;7.30;6.55;;;;;;;8.64;56.50;99427.28;11384966;25;20338;-63
2024/04/24 06:14:43;;;;;;;7.55;5.05;;;;;;;8.63;56.36;99440.66;11402862;25;20013;-62
2024/04/24 06:19:45;;;;;;;5.53;4.88;;;;;;;8.97;55.46;99427.16;11409212;25;20084;-63
2024/04/24 06:24:46;;;;;;;7.43;4.50;;;;;;;9.18;55.23;99435.06;11438779;25;20326;-61
2024/04/24 06:29:48;;;;;;;7.18;4.00;;;;;;;9.31;54.41;99430.34;11412983;25;20264;-64
2024/04/24 06:34:54;;;;;;;7.07;4.68;;;;;;;9.25;53.74;99420.28;11442540;25;20064;-64
2024/04/24 06:39:57;;;;;;;6.38;4.03;;;;;;;9.37;53.39;99428.97;11464721;25;20025;-63
2024/04/24 06:44:59;;;;;;;5.68;3.90;;;;;;;9.19;53.21;99424.31;11469082;25;20006;-64
2024/04/24 06:50:00;;;;;;;7.78;3.97;;;;;;;9.39;52.63;99421.69;11468023;25;20082;-64
2024/04/24 06:55:03;;;;;;;5.90;3.50;;;;;;;9.48;52.34;99423.53;11458070;25;20405;-63
2024/04/24 07:00:05;;;;;;;4.45;4.05;;;;;;;9.26;52.81;99421.09;11473862;25;19997;-64
2024/04/24 07:05:07;;;;;;;6.03;3.63;;;;;;;9.28;52.90;99409.38;11454688;25;20319;-62
2024/04/24 07:10:10;;;;;;;4.88;3.85;;;;;;;9.33;53.63;99416.94;11457090;25;20052;-62
2024/04/24 07:15:12;;;;;;;4.13;3.40;;;;;;;9.41;52.90;99414.41;11439034;25;20001;-63
2024/04/24 07:20:13;;;;;;;5.18;4.50;;;;;;;9.47;52.97;99408.59;11449526;25;20008;-63
2024/04/24 07:25:15;;;;;;;5.03;3.80;;;;;;;9.61;52.95;99406.47;11444682;25;19992;-64
2024/04/24 07:30:18;;;;;;;5.05;3.25;;;;;;;9.53;53.32;99408.03;11478346;25;20006;-63
2024/04/24 07:35:19;;;;;;;6.18;5.57;;;;;;;9.56;53.20;99385.66;11462684;25;20002;-61
2024/04/24 07:40:21;;;;;;;6.10;5.30;;;;;;;9.48;53.77;99394.31;11476728;25;20045;-62
2024/04/24 07:45:22;;;;;;;7.40;5.22;;;;;;;9.36;54.04;99398.06;11429822;25;20501;-64
2024/04/24 07:50:24;;;;;;;7.55;5.93;;;;;;;9.31;54.67;99393.16;11432789;25;20002;-64
2024/04/24 07:55:26;;;;;;;6.90;6.20;;;;;;;9.40;54.46;99386.19;11475471;25;20011;-63
2024/04/24 08:00:27;;;;;;;6.15;5.55;;;;;;;9.47;54.23;99386.47;11426421;25;20748;-63
2024/04/24 08:05:30;;;;;;;5.90;5.30;;;;;;;9.37;54.76;99389.97;11472436;25;20000;-63
2024/04/24 08:10:31;;;;;;;6.30;4.75;;;;;;;9.37;54.17;99391.78;11458372;25;19998;-64
2024/04/24 08:15:33;;;;;;;5.97;4.28;;;;;;;9.45;54.04;99375.16;11472580;25;20085;-63
2024/04/24 08:20:34;;;;;;;5.35;4.68;;;;;;;9.54;54.49;99396.41;11484223;25;20007;-63
2024/04/24 08:25:37;;;;;;;6.60;4.90;;;;;;;9.47;55.20;99392.66;11421634;25;20007;-64
2024/04/24 08:30:38;;;;;;;3.13;2.35;;;;;;;9.34;52.75;99387.59;11465508;25;20443;-63
2024/04/24 08:35:40;;;;;;;4.28;1.60;;;;;;;9.32;50.10;99386.03;11432182;25;19996;-63
2024/04/24 08:40:43;;;;;;;3.15;0.65;;;;;;;9.55;49.41;99392.78;11465066;25;20169;-64
2024/04/24 08:45:48;;;;;;;1.80;0.45;;;;;;;9.48;49.47;99385.50;11461676;25;20009;-63
2024/04/24 08:50:51;;;;;;;1.55;0.55;;;;;;;9.79;49.60;99396.88;11454562;25;20166;-63
2024/04/24 08:55:54;;;;;;;1.23;0.52;;;;;;;10.56;48.68;99381.81;11361896;25;20751;-63
2024/04/24 09:01:03;;;;;;;2.10;0.70;;;;;;;11.05;47.79;99373.63;11417255;25;20012;-63
2024/04/24 09:06:10;;;;;;;2.88;0.98;;;;;;;10.75;48.31;99372.94;11393251;25;20005;-64
2024/04/24 09:11:12;;;;;;;1.25;0.75;;;;;;;10.43;47.96;99373.28;11402259;25;20014;-64
2024/04/24 09:16:15;;;;;;;1.13;0.90;;;;;;;10.41;47.67;99364.63;11423834;25;20000;-64
2024/04/24 09:21:18;;;;;;;2.80;0.88;;;;;;;10.21;48.10;99346.03;11463533;25;19996;-63
2024/04/24 09:26:21;;;;;;;4.28;1.52;;;;;;;10.34;48.35;99344.91;11401245;25;20021;-63
2024/04/24 09:31:22;;;;;;;2.92;0.80;;;;;;;10.43;47.16;99360.00;11446699;25;20002;-64
2024/04/24 09:36:28;;;;;;;0.90;0.63;;;;;;;10.70;47.16;99339.75;11462441;25;20005;-62
2024/04/24 09:41:31;;;;;;;1.38;1.02;;;;;;;10.76;45.75;99339.16;11449974;25;20042;-63
2024/04/24 09:46:33;;;;;;;2.15;0.70;;;;;;;10.57;46.43;99332.94;11457032;25;20036;-63
2024/04/24 09:51:36;;;;;;;1.33;0.70;;;;;;;10.59;46.01;99335.44;11401511;25;20004;-64
2024/04/24 09:56:43;;;;;;;1.15;0.52;;;;;;;10.75;45.42;99329.50;11438513;25;20723;-63
2024/04/24 10:01:53;;;;;;;1.33;0.60;;;;;;;11.24;43.34;99332.72;11407289;25;20007;-62
2024/04/24 10:07:00;;;;;;;3.13;0.45;;;;;;;11.05;44.13;99330.16;11434961;25;20005;-63
2024/04/24 10:12:08;;;;;;;1.17;0.40;;;;;;;11.14;43.49;99323.97;11441601;25;20008;-62
2024/04/24 10:17:10;;;;;;;1.95;0.30;;;;;;;11.66;41.23;99302.81;11437203;25;20071;-64
2024/04/24 10:22:12;;;;;;;2.38;0.35;;;;;;;11.89;40.74;99297.00;11463853;25;20782;-63
2024/04/24 10:27:15;;;;;;;0.75;0.20;;;;;;;12.57;41.13;99297.28;11454458;25;20442;-64
2024/04/24 10:32:18;;;;;;;0.95;0.13;;;;;;;13.42;39.55;99284.69;11456131;25;20068;-64
2024/04/24 10:37:20;;;;;;;2.45;0.20;;;;;;;13.01;39.16;99289.91;11447149;25;20012;-63
2024/04/24 10:42:22;;;;;;;0.50;0.20;;;;;;;12.68;39.19;99287.13;11422432;25;20006;-63
2024/04/24 10:47:23;;;;;;;2.33;0.30;;;;;;;13.70;35.33;99292.38;11404608;25;19992;-63
2024/04/24 10:52:26;;;;;;;0.98;0.10;;;;;;;14.01;36.38;99280.97;11428968;25;20768;-63
2024/04/24 10:57:36;;;;;;;1.67;0.35;;;;;;;14.67;34.41;99262.09;11439031;25;20055;-64
2024/04/24 11:02:39;;;;;;;0.68;0.20;;;;;;;14.71;35.42;99268.75;11447915;25;20553;-65
2024/04/24 11:07:41;;;;;;;2.57;0.50;;;;;;;14.41;35.11;99257.81;11433313;25;20261;-62
2024/04/24 11:12:43;;;;;;;1.83;0.60;;;;;;;12.35;39.97;99302.16;11419909;25;20051;-64
2024/04/24 11:17:48;;;;;;;2.15;0.40;;;;;;;11.62;46.55;99317.44;11462230;25;20000;-63
2024/04/24 11:22:50;;;;;;;2.35;0.50;;;;;;;10.66;47.92;99319.72;11429730;25;20005;-64
2024/04/24 11:27:52;;;;;;;2.60;0.10;;;;;;;10.53;48.57;99298.78;11440750;25;20073;-64
2024/04/24 11:32:54;;;;;;;0.93;0.20;;;;;;;11.29;47.85;99298.47;11471232;25;20002;-63
2024/04/24 11:37:58;;;;;;;1.08;0.17;;;;;;;11.53;44.74;99283.72;11408904;25;20013;-63
2024/04/24 11:43:00;;;;;;;0.63;0.20;;;;;;;11.14;44.21;99281.34;11443867;25;20005;-63
2024/04/24 11:48:04;;;;;;;0.65;0.20;;;;;;;11.06;44.75;99294.56;11424061;25;20239;-63
2024/04/24 11:53:08;;;;;;;0.50;0.10;;;;;;;11.01;44.39;99286.19;11430070;25;20018;-64
2024/04/24 11:58:13;;;;;;;1.03;0.20;;;;;;;11.16;44.44;99268.72;11421794;25;19992;-63
2024/04/24 12:03:15;;;;;;;2.53;0.40;;;;;;;11.46;42.26;99262.16;11431578;25;20243;-63
2024/04/24 12:08:27;;;;;;;2.35;0.63;;;;;;;12.15;41.38;99256.19;11450870;25;20075;-63
2024/04/24 12:13:31;;;;;;;0.68;0.10;;;;;;;13.19;39.64;99246.19;11458410;25;20000;-63
2024/04/24 12:18:33;;;;;;;1.92;0.30;;;;;;;13.96;36.42;99229.81;11456861;25;20090;-63
2024/04/24 12:23:35;;;;;;;2.28;0.25;;;;;;;14.54;35.57;99221.59;11474305;25;20012;-62
2024/04/24 12:28:37;;;;;;;1.77;0.25;;;;;;;15.10;35.87;99216.97;11414412;25;20005;-65
2024/04/24 12:33:41;;;;;;;0.63;0.10;;;;;;;15.31;35.76;99215.47;11451341;25;20007;-65
2024/04/24 12:38:42;;;;;;;1.02;0.10;;;;;;;14.41;38.03;99204.28;11457952;25;20047;-63
2024/04/24 12:43:44;;;;;;;0.65;0.30;;;;;;;13.51;38.51;99205.31;11473420;25;20007;-64
2024/04/24 12:48:52;;;;;;;0.80;0.20;;;;;;;12.80;40.60;99209.41;11447887;25;20050;-65
2024/04/24 12:53:53;;;;;;;1.55;0.38;;;;;;;13.25;41.04;99203.59;11468987;25;19997;-63
2024/04/24 12:58:55;;;;;;;1.55;0.38;;;;;;;13.92;37.64;99183.03;11462976;25;20039;-62
2024/04/24 13:03:58;;;;;;;1.27;0.30;;;;;;;14.23;38.08;99176.88;11453225;25;20005;-64
2024/04/24 13:09:00;;;;;;;0.40;0.13;;;;;;;13.61;36.64;99179.22;11438638;25;20001;-64
2024/04/24 13:14:02;;;;;;;1.02;0.30;;;;;;;13.25;37.39;99174.19;11473496;25;19997;-63
2024/04/24 13:19:03;;;;;;;2.05;0.50;;;;;;;13.09;37.90;99166.22;11440016;25;20076;-63
2024/04/24 13:24:07;;;;;;;1.90;0.40;;;;;;;13.26;37.70;99159.84;11460171;25;20051;-63
2024/04/24 13:29:09;;;;;;;1.88;0.65;;;;;;;13.67;37.45;99152.81;11415152;25;20043;-65
2024/04/24 13:34:10;;;;;;;1.08;0.50;;;;;;;13.88;36.90;99160.28;11451761;25;20013;-65
2024/04/24 13:39:12;;;;;;;4.15;0.73;;;;;;;14.32;35.87;99154.41;11432442;25;20004;-64
2024/04/24 13:44:17;;;;;;;1.05;0.60;;;;;;;14.50;36.26;99155.03;11451269;25;20025;-64
2024/04/24 13:49:19;;;;;;;1.33;0.55;;;;;;;14.43;36.54;99148.69;11464909;25;20001;-62
2024/04/24 13:54:21;;;;;;;2.72;0.85;;;;;;;13.85;36.25;99133.88;11453506;25;20000;-63
2024/04/24 13:59:24;;;;;;;2.08;0.50;;;;;;;13.52;37.38;99150.84;11427877;25;19995;-63
2024/04/24 14:04:25;;;;;;;2.38;0.82;;;;;;;13.12;38.39;99140.97;11436428;25;20009;-64
2024/04/24 14:09:27;;;;;;;1.50;0.70;;;;;;;12.87;45.01;99146.31;11436025;25;20012;-65
2024/04/24 14:14:29;;;;;;;2.80;0.85;;;;;;;13.18;43.35;99118.94;11435905;25;20574;-65
2024/04/24 14:19:31;;;;;;;3.28;0.65;;;;;;;13.65;40.67;99123.59;11442534;25;20001;-64
2024/04/24 14:24:32;;;;;;;2.70;0.75;;;;;;;13.57;39.67;99126.25;11435504;25;20507;-64
2024/04/24 14:29:34;;;;;;;1.92;0.40;;;;;;;13.67;37.32;99124.22;11454721;25;20001;-64
2024/04/24 14:34:36;;;;;;;0.47;0.20;;;;;;;13.74;37.04;99127.91;11469150;25;20481;-64
2024/04/24 14:39:38;;;;;;;1.70;0.57;;;;;;;13.63;37.38;99125.59;11461346;25;20512;-63
2024/04/24 14:44:40;;;;;;;2.72;0.73;;;;;;;13.67;37.52;99121.56;11434155;25;20049;-66
2024/04/24 14:49:43;;;;;;;1.92;0.40;;;;;;;13.67;37.83;99110.88;11424007;25;20001;-65
2024/04/24 14:54:47;;;;;;;2.55;0.40;;;;;;;13.51;37.47;99097.53;11475965;25;20460;-62
2024/04/24 14:59:49;;;;;;;2.08;0.55;;;;;;;13.08;37.70;99085.22;11471282;25;20013;-64
2024/04/24 15:04:51;;;;;;;3.00;0.30;;;;;;;12.91;38.19;99111.09;11446652;25;19998;-65
2024/04/24 15:09:54;;;;;;;1.60;0.35;;;;;;;12.20;45.04;99139.16;11475524;25;20086;-64
2024/04/24 15:14:55;;;;;;;1.30;0.45;;;;;;;12.81;46.79;99112.28;11473652;25;20605;-64
2024/04/24 15:19:58;;;;;;;2.80;0.30;;;;;;;13.12;45.43;99100.91;11471878;25;20068;-65
2024/04/24 15:25:00;;;;;;;0.55;0.10;;;;;;;13.08;45.06;99095.06;11467125;25;20730;-65
2024/04/24 15:30:01;;;;;;;1.23;0.55;;;;;;;12.97;44.05;99082.91;11426732;25;20001;-64
2024/04/24 15:35:03;;;;;;;2.13;0.30;;;;;;;12.63;42.94;99089.22;11409204;25;20005;-64
2024/04/24 15:40:06;;;;;;;2.28;0.55;;;;;;;12.65;44.14;99094.38;11462947;25;20449;-65
2024/04/24 15:45:09;;;;;;;1.63;0.40;;;;;;;12.76;43.12;99086.06;11470086;25;20075;-66
2024/04/24 15:50:11;;;;;;;3.63;0.90;;;;;;;12.60;42.32;99086.06;11443223;25;20394;-65
2024/04/24 15:55:12;;;;;;;1.58;0.40;;;;;;;12.33;41.83;99080.81;11453446;25;20631;-66
2024/04/24 16:00:14;;;;;;;2.65;0.47;;;;;;;12.41;42.20;99071.16;11472322;25;20065;-64
2024/04/24 16:05:16;;;;;;;1.35;0.40;;;;;;;12.55;41.61;99078.53;11437809;25;20016;-66
2024/04/24 16:10:18;;;;;;;2.08;0.20;;;;;;;12.59;40.85;99074.53;11455025;25;20009;-64
2024/04/24 16:15:19;;;;;;;1.42;0.30;;;;;;;12.55;41.29;99084.69;11414974;25;20078;-66
2024/04/24 16:20:22;;;;;;;1.48;0.32;;;;;;;12.11;41.36;99089.44;11476943;25;20076;-65
2024/04/24 16:25:24;;;;;;;2.00;0.30;;;;;;;12.14;41.20;99092.59;11433916;25;20008;-65
2024/04/24 16:30:25;;;;;;;2.60;0.63;;;;;;;12.27;41.63;99102.81;11462688;25;20390;-66
2024/04/24 16:35:27;;;;;;;1.48;0.38;;;;;;;12.03;41.76;99100.91;11469949;25;20003;-64
2024/04/24 16:40:28;;;;;;;1.38;0.30;;;;;;;11.94;41.28;99086.72;11457965;25;20045;-64
2024/04/24 16:45:30;;;;;;;2.00;0.30;;;;;;;12.03;41.77;99091.06;11455370;25;20011;-65
2024/04/24 16:50:32;;;;;;;1.02;0.60;;;;;;;11.89;41.97;99088.16;11475915;25;20019;-64
2024/04/24 16:55:33;;;;;;;1.90;0.40;;;;;;;11.92;42.14;99093.16;11470821;25;19993;-64
2024/04/24 17:00:35;;;;;;;2.95;0.50;;;;;;;12.07;42.07;99101.41;11405902;25;20096;-65
2024/04/24 17:05:36;;;;;;;1.80;0.40;;;;;;;11.73;42.88;99107.59;11450459;25;20127;-65
2024/04/24 17:10:40;;;;;;;2.65;0.70;;;;;;;11.34;44.46;99116.84;11446755;25;20016;-65
2024/04/24 17:15:41;;;;;;;1.05;0.40;;;;;;;11.23;44.78;99109.97;11451812;25;20393;-65
2024/04/24 17:20:45;;;;;;;3.33;0.80;;;;;;;11.26;44.82;99112.31;11442399;25;20719;-64
2024/04/24 17:25:46;;;;;;;1.35;0.40;;;;;;;11.18;44.49;99127.38;11447185;25;20028;-65
2024/04/24 17:30:48;;;;;;;1.77;0.60;;;;;;;11.14;44.97;99137.53;11448183;25;20099;-66
2024/04/24 17:35:51;;;;;;;1.10;0.32;;;;;;;11.03;45.47;99127.09;11489392;25;20014;-64
2024/04/24 17:40:53;;;;;;;3.10;1.08;;;;;;;11.06;45.22;99135.59;11442194;25;20036;-66
2024/04/24 17:45:54;;;;;;;2.03;0.40;;;;;;;11.12;45.59;99145.69;11450647;25;20057;-62
2024/04/24 17:50:56;;;;;;;4.75;1.08;;;;;;;11.13;46.55;99154.50;11491565;25;20367;-65
2024/04/24 17:55:57;;;;;;;4.18;1.30;;;;;;;11.03;47.10;99162.53;11478806;25;20004;-66
2024/04/24 18:01:00;;;;;;;3.15;0.70;;;;;;;11.03;47.93;99170.53;11412257;25;20449;-66
2024/04/24 18:06:04;;;;;;;1.17;0.30;;;;;;;10.84;49.06;99178.69;11474138;25;20009;-65
2024/04/24 18:11:06;;;;;;;1.95;0.63;;;;;;;10.94;49.01;99184.78;11382167;25;20663;-64
2024/04/24 18:16:08;;;;;;;1.60;0.60;;;;;;;10.83;49.34;99196.47;11481650;25;20028;-64
2024/04/24 18:21:10;;;;;;;1.75;0.55;;;;;;;10.47;50.78;99183.13;11442277;25;20034;-65
2024/04/24 18:26:11;;;;;;;2.35;0.70;;;;;;;10.71;50.84;99184.38;11482469;25;20001;-64
2024/04/24 18:31:13;;;;;;;3.25;0.40;;;;;;;10.62;50.89;99196.75;11470943;25;20049;-64
2024/04/24 18:36:15;;;;;;;2.15;0.60;;;;;;;10.71;50.72;99200.34;11493631;25;20559;-64
2024/04/24 18:41:17;;;;;;;0.80;0.28;;;;;;;10.49;49.97;99197.09;11448758;25;20018;-65
2024/04/24 18:46:19;;;;;;;2.67;0.35;;;;;;;10.24;50.50;99199.47;11492549;25;20513;-66
2024/04/24 18:51:21;;;;;;;1.27;0.30;;;;;;;10.19;50.96;99208.84;11417840;25;20002;-66
2024/04/24 18:56:22;;;;;;;3.22;0.30;;;;;;;10.07;51.20;99202.88;11424515;25;20045;-65
2024/04/24 19:01:24;;;;;;;2.50;0.38;;;;;;;10.28;50.53;99205.31;11476585;25;19996;-64
2024/04/24 19:06:25;;;;;;;1.70;0.50;;;;;;;10.11;51.39;99214.91;11476485;25;20092;-66
2024/04/24 19:11:27;;;;;;;2.03;0.82;;;;;;;10.04;52.41;99197.84;11467454;25;20008;-65
2024/04/24 19:16:34;;;;;;;1.70;0.40;;;;;;;10.09;52.23;99211.56;11392090;25;20005;-64
2024/04/24 19:21:35;;;;;;;2.40;0.55;;;;;;;10.00;52.30;99201.81;11451526;25;19998;-66
2024/04/24 19:26:39;;;;;;;3.00;0.63;;;;;;;9.99;52.96;99226.72;11479281;25;20079;-64
2024/04/24 19:31:42;;;;;;;0.68;0.38;;;;;;;9.66;53.38;99216.44;11487530;25;20034;-64
2024/04/24 19:36:44;;;;;;;1.98;0.63;;;;;;;9.63;53.77;99223.88;11464742;25;19996;-66
2024/04/24 19:41:45;;;;;;;3.70;1.13;;;;;;;9.50;53.94;99217.03;11435013;25;20001;-63
2024/04/24 19:46:48;;;;;;;3.38;0.65;;;;;;;9.40;54.74;99215.34;11478133;25;20002;-63
2024/04/24 19:51:49;;;;;;;2.35;0.68;;;;;;;9.50;55.11;99225.00;11486638;25;20011;-63
2024/04/24 19:56:52;;;;;;;1.02;0.60;;;;;;;9.40;55.06;99237.47;11453113;25;20012;-64
2024/04/24 20:01:54;;;;;;;4.28;1.35;;;;;;;9.54;54.91;99239.66;11441736;25;20005;-66
2024/04/24 20:06:56;;;;;;;3.53;1.30;;;;;;;9.58;54.56;99231.41;11471390;25;20026;-65
2024/04/24 20:11:57;;;;;;;3.10;0.82;;;;;;;9.51;54.65;99239.13;11413391;25;20009;-65
2024/04/24 20:17:00;;;;;;;2.53;0.60;;;;;;;9.31;55.51;99248.94;11460560;25;20001;-64
2024/04/24 20:22:01;;;;;;;4.05;0.90;;;;;;;8.96;55.76;99232.56;11427749;25;20012;-64
2024/04/24 20:27:04;;;;;;;1.63;0.47;;;;;;;9.26;55.60;99248.50;11443852;25;19999;-65
2024/04/24 20:32:06;;;;;;;3.47;0.98;;;;;;;9.20;55.98;99250.75;11452303;25;20438;-63
2024/04/24 20:37:08;;;;;;;3.95;1.25;;;;;;;9.46;55.37;99247.50;11421665;25;20046;-63
2024/04/24 20:42:10;;;;;;;5.40;1.23;;;;;;;9.46;55.14;99236.06;11442493;25;20000;-65
2024/04/24 20:47:11;;;;;;;1.52;0.85;;;;;;;9.53;55.28;99242.47;11455590;25;20007;-64
2024/04/24 20:52:13;;;;;;;2.35;0.90;;;;;;;9.54;54.81;99250.28;11469719;25;20613;-64
2024/04/24 20:57:16;;;;;;;3.33;0.85;;;;;;;9.48;54.40;99245.53;11431884;25;22524;-64
2024/04/24 21:02:22;;;;;;;2.80;1.25;;;;;;;9.41;55.19;99246.25;11440457;25;20697;-63
2024/04/24 21:07:24;;;;;;;1.85;0.85;;;;;;;9.37;54.86;99227.13;11408914;25;20020;-63
2024/04/24 21:12:25;;;;;;;1.92;1.20;;;;;;;9.46;55.05;99247.50;11455446;25;19995;-64
2024/04/24 21:17:27;;;;;;;5.30;0.98;;;;;;;9.31;55.32;99240.97;11424004;25;20012;-63
2024/04/24 21:22:29;;;;;;;1.70;0.65;;;;;;;9.46;55.12;99252.00;11420705;25;20008;-63
2024/04/24 21:27:33;;;;;;;1.50;0.77;;;;;;;9.17;56.03;99253.66;11457530;25;19997;-65
2024/04/24 21:32:34;;;;;;;3.55;1.08;;;;;;;9.36;55.72;99247.50;11394616;25;20663;-64
2024/04/24 21:37:36;;;;;;;2.70;1.63;;;;;;;9.48;56.03;99245.53;11459152;25;20006;-62
2024/04/24 21:42:40;;;;;;;4.87;1.40;;;;;;;9.34;55.49;99238.03;11417653;25;19994;-64
2024/04/24 21:47:42;;;;;;;3.90;0.70;;;;;;;9.25;55.97;99241.50;11450055;25;20070;-63
2024/04/24 21:52:43;;;;;;;3.47;1.13;;;;;;;9.28;56.20;99249.22;11460270;25;21386;-63
2024/04/24 21:57:45;;;;;;;2.30;0.80;;;;;;;9.05;56.87;99217.59;11470275;25;19999;-64
2024/04/24 22:02:46;;;;;;;1.73;0.80;;;;;;;9.16;57.31;99252.00;11445569;25;20092;-63
2024/04/24 22:07:48;;;;;;;3.30;1.13;;;;;;;9.19;57.51;99251.69;11455770;25;20004;-65
2024/04/24 22:12:50;;;;;;;3.60;0.82;;;;;;;9.05;58.01;99243.31;11448711;25;20006;-63
2024/04/24 22:17:52;;;;;;;2.25;0.90;;;;;;;9.08;58.14;99257.13;11465620;25;20331;-63
2024/04/24 22:22:54;;;;;;;2.40;0.73;;;;;;;8.93;59.12;99255.88;11431466;25;20691;-64
2024/04/24 22:27:57;;;;;;;1.83;1.05;;;;;;;9.11;58.80;99259.53;11403392;25;20020;-64
2024/04/24 22:32:59;;;;;;;1.10;0.70;;;;;;;9.12;58.47;99263.84;11421479;25;21100;-64
2024/04/24 22:38:01;;;;;;;2.78;1.42;;;;;;;9.26;58.20;99259.09;11471960;25;20021;-64
2024/04/24 22:43:02;;;;;;;2.08;0.93;;;;;;;9.26;58.08;99267.06;11445143;25;20013;-64
2024/04/24 22:48:05;;;;;;;1.45;1.08;;;;;;;9.12;58.19;99255.06;11401568;25;20638;-63
2024/04/24 22:53:12;;;;;;;2.13;1.15;;;;;;;9.05;58.02;99252.09;11469073;25;20011;-63
2024/04/24 22:58:14;;;;;;;2.95;1.50;;;;;;;9.01;59.10;99253.38;11385117;25;20006;-64
2024/04/24 23:03:16;;;;;;;3.10;1.48;;;;;;;9.05;58.82;99244.13;11415755;25;20001;-63
2024/04/24 23:08:19;;;;;;;2.55;1.00;;;;;;;8.93;58.79;99259.38;11440216;25;20033;-62
2024/04/24 23:13:23;;;;;;;2.67;0.90;;;;;;;8.76;59.94;99250.25;11457405;25;20436;-63
2024/04/24 23:18:27;;;;;;;3.03;1.58;;;;;;;8.79;59.84;99255.28;11460920;25;20395;-64
2024/04/24 23:23:29;;;;;;;2.25;1.30;;;;;;;8.61;62.40;99238.34;11454106;25;20513;-63
2024/04/24 23:28:31;;;;;;;2.72;1.38;;;;;;;8.97;62.51;99259.94;11456014;25;20478;-65
2024/04/24 23:33:33;;;;;;;2.58;1.40;;;;;;;8.85;62.42;99259.22;11457037;25;20075;-63